KERO2: Robert S. Kerr Lock & Dam & Reservoir (L&D 15)

Data processed at Thu Jan 04 2018 23:03


All information presented herein is the property of the government of the United States of America and may be revised or deleted at any time without prior notice.
Dissemination of this information without the expressed written consent of the Public Affairs Office, Tulsa District U.S. Army Corps of Engineers is strictly prohibited.
These data are gathered electronically and, as presented, have not undergone any form of quality control. These data are not guaranteed to be valid or correct.
Go to home page.
Go to station list.

Upstream stations:

Downstream station:
Previous Day
Next Day
Current Day
    
SHEF ID:       KERO2     Robert S. Kerr Lock & Dam
STATION TYPE:  NAVIGATION LOCK
Normal Pool:  Bottom =   458.00, Top =   460.00

               PRECIP ELEVATION   STORAGE   TW-ELEV    INFLOW   RELEASE  AIR-TEMP  WIND-DIRWIND-SPEED REL-HUMID SOLAR-RAD   VOLTAGE  BAT-LOAD
                   in        ft     ac-ft        ft       cfs       cfs         F       deg       mph         %      W/m2      volt      volt
              Ccp-Rev   Ccp-Rev   Ccp-Rev   Ccp-Rev  Regi-Rev  Regi-Rev   Ccp-Rev   Ccp-Rev   Ccp-Rev   Ccp-Rev   Ccp-Rev   Ccp-Rev   Ccp-Rev
(US/Central)
01/02 00:00      0.00    459.76    515346    412.27      4401         0     17.82    357.60      1.14     58.45      0.00     13.79     13.36
01/02 01:00      0.00    459.75    514915    412.55      3562         0     18.37     44.60      2.34     66.94      0.00     13.79     13.36
01/02 02:00      0.00    459.75    514915    412.41      2546         0     18.37     36.70      1.87     59.06      0.00     13.81     13.36
01/02 03:00      0.00    459.81    517501    412.65      1878         0     18.48     44.30      3.38     55.63      0.00     13.83     13.42
01/02 04:00      0.00    459.72    513622    412.68      1209         0     18.81     38.90      2.61     54.77      0.00     13.81     13.42
01/02 05:00      0.00    459.75    514915    412.84      1641      6500     18.14     34.40      2.04     58.79      0.00     13.82     13.36
01/02 06:00      0.00    459.73    514053    413.31      2335      6500     18.57     35.50      1.74     57.27      0.00     13.54     13.36
01/02 07:00      0.00    459.68    511898    414.10      3435     22400     18.68     40.20      2.15     54.46      0.00     13.82     13.36
01/02 08:00      0.00    459.68    511898    414.26      7888     31150     18.90     41.70      2.34     53.42      3.00     13.83     13.30
01/02 09:00      0.00    459.60    508450    414.45     11021     31150     19.00     35.00      2.18     48.35     42.00     13.82     13.36
01/02 10:00      0.00    459.60    508450    413.50     17110     22400     19.78     31.30      2.59     48.23     96.00     13.83     13.36
01/02 11:00      0.00    459.60    508450    412.79     15983     15800     20.66     35.20      1.74     45.85    180.00     13.85     13.36
01/02 12:00      0.00    459.64    510174    412.64     14856     15800     21.65     46.90      1.67     45.18    207.00     13.83     13.42
01/02 13:00      0.00    459.63    509743    411.59     11391         0     21.99     50.40      1.99     36.63    303.00     13.82     13.36
01/02 14:00      0.00    459.62    509312    412.69      9361         0     22.66     52.00      0.94     34.93    226.00     13.83     13.36
01/02 15:00      0.00    459.66    511036    412.05      3276         0     23.54     54.20      2.05     34.68    173.00     13.81     13.42
01/02 16:00      0.00    459.62    509312    412.97      8522         0     24.30     58.50      2.42     38.35    130.00     13.81     13.36
01/02 17:00      0.00    459.64    510174    413.45     10102     15800     23.65     82.90      1.42     32.49     49.00     13.81     13.36
01/02 18:00      0.00    459.66    511036    413.28     10667     15800     23.97    203.00      1.20     37.13      2.00     13.81     13.36
01/02 19:00      0.00    459.67    511467    413.14     10580     15800     24.10    176.70      3.26     39.51      0.00     13.82     13.36
01/02 20:00      0.00    459.66    511036    412.03     12578         0     23.76    190.70      1.03     43.54      0.00     13.80     13.42
01/02 21:00      0.00    459.67    511467    412.53     11504         0     20.89     79.60      0.57     44.40      0.00     13.81     13.30
01/02 22:00      0.00    459.70    512760    412.35     10446         0     23.32    196.90      3.55     42.32      0.00     13.80     13.36
01/02 23:00      0.00    459.74    514484    412.37      9387         0     23.54    190.70      5.79     46.23      0.00     13.80     13.36